createdAt,value
2023-11-29T00:00:25.184Z,98794.21
2023-11-29T00:05:48.314Z,98796.60
2023-11-29T00:10:51.273Z,98789.27
2023-11-29T00:15:54.236Z,98790.61
2023-11-29T00:21:01.290Z,98796.90
2023-11-29T00:26:04.217Z,98803.69
2023-11-29T00:31:07.046Z,98814.59
2023-11-29T00:36:10.534Z,98808.98
2023-11-29T00:41:13.581Z,98806.08
2023-11-29T00:46:16.860Z,98810.33
2023-11-29T00:51:19.644Z,98817.30
2023-11-29T00:56:22.449Z,98823.62
2023-11-29T01:01:25.399Z,98826.36
2023-11-29T01:06:28.234Z,98835.91
2023-11-29T01:11:31.054Z,98835.39
2023-11-29T01:16:34.040Z,98838.27
2023-11-29T01:21:39.569Z,98828.91
2023-11-29T01:26:42.584Z,98826.71
2023-11-29T01:31:45.852Z,98828.06
2023-11-29T01:36:48.783Z,98835.22
2023-11-29T01:41:51.641Z,98838.64
2023-11-29T01:46:54.765Z,98843.56
2023-11-29T01:51:57.654Z,98844.41
2023-11-29T01:57:02.771Z,98843.73
2023-11-29T02:02:05.732Z,98847.14
2023-11-29T02:07:10.085Z,98847.13
2023-11-29T02:12:13.132Z,98847.46
2023-11-29T02:17:15.984Z,98844.40
2023-11-29T02:22:19.800Z,98846.45
2023-11-29T02:27:23.134Z,98850.19
2023-11-29T02:32:25.973Z,98849.01
2023-11-29T02:37:28.732Z,98847.46
2023-11-29T02:42:31.795Z,98850.72
2023-11-29T02:47:35.040Z,98848.65
2023-11-29T02:52:38.111Z,98854.97
2023-11-29T02:57:40.831Z,98857.36
2023-11-29T03:02:43.730Z,98864.67
2023-11-29T03:07:46.636Z,98872.67
2023-11-29T03:12:49.467Z,98867.22
2023-11-29T03:17:52.524Z,98862.11
2023-11-29T03:22:55.360Z,98864.49
2023-11-29T03:27:58.118Z,98865.49
2023-11-29T03:33:01.090Z,98866.19
2023-11-29T03:38:04.015Z,98866.87
2023-11-29T03:43:06.711Z,98872.15
2023-11-29T03:48:09.527Z,98874.20
2023-11-29T03:53:12.466Z,98875.56
2023-11-29T03:58:15.407Z,98868.08
2023-11-29T04:03:18.219Z,98869.78
2023-11-29T04:08:21.267Z,98865.52
2023-11-29T04:13:23.996Z,98862.29
2023-11-29T04:18:26.828Z,98857.70
2023-11-29T04:23:29.555Z,98851.05
2023-11-29T04:28:32.832Z,98844.58
2023-11-29T04:33:35.576Z,98842.52
2023-11-29T04:38:38.662Z,98838.70
2023-11-29T04:43:41.603Z,98840.34
2023-11-29T04:48:46.052Z,98839.42
2023-11-29T04:53:48.896Z,98843.61
2023-11-29T04:58:51.739Z,98843.20
2023-11-29T05:03:54.587Z,98837.20
2023-11-29T05:08:59.072Z,98846.14
2023-11-29T05:14:01.952Z,98846.23
2023-11-29T05:19:07.152Z,98846.00
2023-11-29T05:24:10.103Z,98844.91
2023-11-29T05:29:12.819Z,98847.05
2023-11-29T05:34:15.751Z,98853.64
2023-11-29T05:39:20.778Z,98854.98
2023-11-29T05:44:23.572Z,98856.15
2023-11-29T05:49:26.359Z,98858.29
2023-11-29T05:54:29.064Z,98861.75
2023-11-29T05:59:31.831Z,98868.41
2023-11-29T06:04:34.667Z,98873.91
2023-11-29T06:09:40.302Z,98874.53
2023-11-29T06:14:43.658Z,98879.41
2023-11-29T06:19:46.439Z,98877.54
2023-11-29T06:24:49.182Z,98879.70
2023-11-29T06:29:51.997Z,98880.81
2023-11-29T06:34:57.084Z,98883.12
2023-11-29T06:40:00.451Z,98892.53
2023-11-29T06:45:03.832Z,98898.59
2023-11-29T06:50:07.619Z,98907.39
2023-11-29T06:55:13.583Z,98914.18
2023-11-29T07:00:19.217Z,98915.38
2023-11-29T07:05:21.982Z,98919.67
2023-11-29T07:10:24.966Z,98926.77
2023-11-29T07:15:27.828Z,98935.06
2023-11-29T07:20:37.916Z,98938.25
2023-11-29T07:25:46.322Z,98941.95
2023-11-29T07:30:50.875Z,98944.61
2023-11-29T07:35:53.775Z,98951.91
2023-11-29T07:40:56.839Z,98951.41
2023-11-29T07:45:59.606Z,98951.53
2023-11-29T07:51:03.115Z,98956.77
2023-11-29T07:56:07.396Z,98961.79
2023-11-29T08:01:10.319Z,98965.96
2023-11-29T08:06:13.234Z,98965.20
2023-11-29T08:11:16.478Z,98961.39
2023-11-29T08:16:20.081Z,98967.80
2023-11-29T08:21:22.919Z,98965.33
2023-11-29T08:26:26.827Z,98967.59
2023-11-29T08:31:29.865Z,98967.64
2023-11-29T08:36:32.645Z,98971.77
2023-11-29T08:41:35.567Z,98973.48
2023-11-29T08:46:38.394Z,98970.42
2023-11-29T08:51:42.642Z,98971.44
2023-11-29T08:56:45.491Z,98969.39
2023-11-29T09:01:48.640Z,98973.79
2023-11-29T09:06:51.531Z,98975.64
2023-11-29T09:11:54.688Z,98979.52
2023-11-29T09:16:57.746Z,98980.80
2023-11-29T09:22:02.076Z,98985.84
2023-11-29T09:27:05.865Z,98987.84
2023-11-29T09:32:08.932Z,98992.70
2023-11-29T09:37:11.760Z,98995.00
2023-11-29T09:42:14.957Z,98991.46
2023-11-29T09:47:18.364Z,98990.55
2023-11-29T09:52:23.866Z,98997.47
2023-11-29T09:57:27.411Z,98993.91
2023-11-29T10:02:34.644Z,98997.49
2023-11-29T10:07:37.548Z,98995.34
2023-11-29T10:12:42.369Z,99000.53
2023-11-29T10:17:46.451Z,99010.33
2023-11-29T10:22:51.019Z,99009.84
2023-11-29T10:27:54.316Z,99003.70
2023-11-29T10:32:58.343Z,99004.17
2023-11-29T10:38:22.937Z,99004.30
2023-11-29T10:43:29.536Z,99016.66
2023-11-29T10:48:36.423Z,99020.16
2023-11-29T10:53:40.092Z,99018.76
2023-11-29T10:58:49.495Z,99018.05
2023-11-29T11:03:52.807Z,99013.70
2023-11-29T11:08:56.401Z,99015.02
2023-11-29T11:14:04.439Z,99018.93
2023-11-29T11:19:07.297Z,99019.92
2023-11-29T11:24:12.388Z,99013.02
2023-11-29T11:29:15.607Z,99007.92
2023-11-29T11:34:18.414Z,99003.61
2023-11-29T11:39:21.334Z,98996.59
2023-11-29T11:44:24.836Z,98996.02
2023-11-29T11:49:28.237Z,98989.23
2023-11-29T11:54:31.120Z,98991.27
2023-11-29T11:59:34.021Z,98990.29
2023-11-29T12:04:37.153Z,98996.96
2023-11-29T12:09:43.296Z,98991.35
2023-11-29T12:14:47.990Z,98993.65
2023-11-29T12:19:52.368Z,98985.56
2023-11-29T12:24:57.130Z,98984.84
2023-11-29T12:30:00.010Z,98980.92
2023-11-29T12:35:05.837Z,98977.95
2023-11-29T12:40:11.316Z,98978.55
2023-11-29T12:45:15.078Z,98977.25
2023-11-29T12:50:17.976Z,98977.67
2023-11-29T12:55:20.883Z,98973.09
2023-11-29T13:00:23.711Z,98969.38
2023-11-29T13:05:26.535Z,98969.76
2023-11-29T13:10:31.039Z,98960.23
2023-11-29T13:15:33.918Z,98957.88
2023-11-29T13:20:36.774Z,98960.81
2023-11-29T13:25:39.645Z,98964.79
2023-11-29T13:30:44.356Z,98963.97
2023-11-29T13:35:47.986Z,98969.49
2023-11-29T13:40:51.017Z,98978.39
2023-11-29T13:45:54.685Z,98980.64
2023-11-29T13:51:00.283Z,98980.47
2023-11-29T13:56:03.952Z,98979.27
2023-11-29T14:01:07.281Z,98987.95
2023-11-29T14:06:10.693Z,98986.39
2023-11-29T14:11:13.753Z,98987.70
2023-11-29T14:16:17.109Z,98987.14
2023-11-29T14:21:20.991Z,98987.94
2023-11-29T14:26:23.853Z,98987.89
2023-11-29T14:31:26.790Z,98991.60
2023-11-29T14:36:29.841Z,98994.95
2023-11-29T14:41:32.831Z,98983.83
2023-11-29T14:46:35.734Z,98984.17
2023-11-29T14:51:38.817Z,98984.52
2023-11-29T14:56:42.261Z,98994.77
2023-11-29T15:01:45.082Z,98994.52
2023-11-29T15:06:48.305Z,98988.64
2023-11-29T15:11:54.227Z,98984.09
2023-11-29T15:16:57.364Z,98979.35
2023-11-29T15:22:00.960Z,98985.66
2023-11-29T15:27:04.352Z,98984.84
2023-11-29T15:32:08.457Z,98992.18
2023-11-29T15:37:11.207Z,99003.78
2023-11-29T15:42:14.053Z,98995.96
2023-11-29T15:47:16.996Z,98995.13
2023-11-29T15:52:19.892Z,98994.96
2023-11-29T15:57:22.787Z,98997.52
2023-11-29T16:02:26.023Z,98997.33
2023-11-29T16:07:28.880Z,98992.38
2023-11-29T16:12:31.751Z,98987.95
2023-11-29T16:17:34.800Z,98989.30
2023-11-29T16:22:37.671Z,98992.70
2023-11-29T16:27:40.572Z,98997.66
2023-11-29T16:32:43.434Z,98993.23
2023-11-29T16:37:48.402Z,98997.15
2023-11-29T16:42:51.217Z,99004.98
2023-11-29T16:47:54.187Z,99007.37
2023-11-29T16:52:59.011Z,99005.48
2023-11-29T16:58:01.817Z,99006.33
2023-11-29T17:03:13.513Z,99005.14
2023-11-29T17:08:16.678Z,99000.37
2023-11-29T17:13:19.572Z,99004.29
2023-11-29T17:18:22.413Z,99006.51
2023-11-29T17:23:25.315Z,99010.44
2023-11-29T17:28:28.071Z,99011.12
2023-11-29T17:33:30.971Z,99017.26
2023-11-29T17:38:34.255Z,99017.58
2023-11-29T17:43:37.094Z,99020.48
2023-11-29T17:48:39.977Z,99018.95
2023-11-29T17:53:42.906Z,99022.35
2023-11-29T17:58:45.859Z,99016.58
2023-11-29T18:03:48.577Z,99010.62
2023-11-29T18:08:51.455Z,99011.15
2023-11-29T18:13:54.876Z,99019.65
2023-11-29T18:18:58.543Z,99024.27
2023-11-29T18:24:01.870Z,99022.39
2023-11-29T18:29:04.831Z,99019.33
2023-11-29T18:34:08.403Z,99015.40
2023-11-29T18:39:11.349Z,99020.00
2023-11-29T18:44:14.163Z,99027.31
2023-11-29T18:49:18.204Z,99022.89
2023-11-29T18:54:21.071Z,99020.50
2023-11-29T18:59:30.660Z,99016.76
2023-11-29T19:04:34.328Z,99011.96
2023-11-29T19:09:37.418Z,99014.35
2023-11-29T19:14:40.426Z,99009.25
2023-11-29T19:19:43.570Z,99003.29
2023-11-29T19:24:46.480Z,99002.42
2023-11-29T19:29:49.613Z,99002.77
2023-11-29T19:34:52.554Z,99002.07
2023-11-29T19:39:55.343Z,99001.38
2023-11-29T19:44:59.128Z,98997.61
2023-11-29T19:50:02.072Z,98991.46
2023-11-29T19:55:07.419Z,98989.77
2023-11-29T20:00:11.262Z,98998.28
2023-11-29T20:05:14.259Z,98994.70
2023-11-29T20:10:17.409Z,98990.09
2023-11-29T20:15:20.597Z,98988.19
2023-11-29T20:20:31.049Z,98986.98
2023-11-29T20:25:44.083Z,98984.92
2023-11-29T20:30:48.297Z,98993.10
2023-11-29T20:35:52.919Z,98998.39
2023-11-29T20:40:55.800Z,98995.84
2023-11-29T20:45:58.571Z,98992.95
2023-11-29T20:51:02.025Z,98992.08
2023-11-29T20:56:05.276Z,98984.21
2023-11-29T21:01:08.228Z,98980.61
2023-11-29T21:06:11.166Z,98974.64
2023-11-29T21:11:18.963Z,98976.34
2023-11-29T21:16:21.957Z,98969.52
2023-11-29T21:21:24.871Z,98965.27
2023-11-29T21:26:27.654Z,98955.23
2023-11-29T21:31:31.994Z,98953.19
2023-11-29T21:36:37.707Z,98952.68
2023-11-29T21:41:40.674Z,98952.17
2023-11-29T21:46:43.542Z,98946.89
2023-11-29T21:51:46.431Z,98947.41
2023-11-29T21:56:49.214Z,98945.55
2023-11-29T22:01:53.525Z,98947.10
2023-11-29T22:06:56.450Z,98948.98
2023-11-29T22:11:59.208Z,98947.95
2023-11-29T22:17:01.949Z,98948.10
2023-11-29T22:22:05.044Z,98946.21
2023-11-29T22:27:07.935Z,98949.09
2023-11-29T22:32:11.051Z,98948.58
2023-11-29T22:37:13.815Z,98943.66
2023-11-29T22:42:17.441Z,98939.40
2023-11-29T22:47:20.289Z,98937.85
2023-11-29T22:52:22.989Z,98943.13
2023-11-29T22:57:25.704Z,98941.23
2023-11-29T23:02:28.653Z,98936.80
2023-11-29T23:07:31.419Z,98930.83
2023-11-29T23:12:34.137Z,98919.77
2023-11-29T23:17:36.973Z,98909.04
2023-11-29T23:22:41.988Z,98904.77
2023-11-29T23:27:44.796Z,98895.55
2023-11-29T23:32:49.005Z,98888.36
2023-11-29T23:37:51.798Z,98882.04
2023-11-29T23:42:54.482Z,98873.16
2023-11-29T23:47:57.350Z,98871.81
2023-11-29T23:53:00.298Z,98870.14
2023-11-29T23:58:03.555Z,98877.16
